Time;durP1;ratioP1;P1;durP2;ratioP2;P2;SDS_P1;SDS_P2;PMS_P1;PMS_P2;Temp;Humidity;BMP_temperature;BMP_pressure;BME280_temperature;BME280_humidity;BME280_pressure;Samples;Min_cycle;Max_cycle;Signal;HPM_P1;HPM_P2
2022/09/14 00:00:42;;;;;;;11.18;4.22;;;22.50;74.10;;;;;;5003198;28;20886;-77
2022/09/14 00:03:07;;;;;;;7.82;4.05;;;22.60;73.70;;;;;;5016168;28;20490;-77
2022/09/14 00:05:37;;;;;;;7.22;4.15;;;22.60;73.60;;;;;;4998659;28;20025;-77
2022/09/14 00:08:03;;;;;;;10.73;4.57;;;22.60;73.60;;;;;;4997989;28;20371;-77
2022/09/14 00:10:30;;;;;;;10.52;4.30;;;22.40;73.80;;;;;;4998505;28;20022;-77
2022/09/14 00:12:55;;;;;;;8.65;4.43;;;22.40;74.00;;;;;;4998865;28;20034;-77
2022/09/14 00:15:21;;;;;;;12.98;5.72;;;22.30;74.30;;;;;;4998786;28;20041;-77
2022/09/14 00:17:47;;;;;;;8.52;4.53;;;22.30;74.40;;;;;;4996951;28;20439;-77
2022/09/14 00:20:12;;;;;;;8.63;4.32;;;22.40;74.10;;;;;;4997738;28;20101;-77
2022/09/14 00:22:38;;;;;;;13.00;4.60;;;22.50;73.70;;;;;;4998121;28;20022;-77
2022/09/14 00:25:04;;;;;;;6.05;3.83;;;22.60;73.40;;;;;;4998189;28;20084;-77
2022/09/14 00:27:30;;;;;;;8.95;3.95;;;22.60;73.10;;;;;;4998134;28;20053;-77
2022/09/14 00:29:55;;;;;;;5.45;3.90;;;22.70;72.90;;;;;;5017522;28;20033;-77
2022/09/14 00:32:21;;;;;;;7.45;4.07;;;22.60;72.80;;;;;;5017609;28;20091;-77
2022/09/14 00:34:47;;;;;;;8.63;3.85;;;22.70;72.60;;;;;;5032183;28;20022;-77
2022/09/14 00:37:12;;;;;;;8.95;4.07;;;22.60;72.50;;;;;;5000210;28;20092;-77
2022/09/14 00:39:38;;;;;;;7.63;3.20;;;22.60;72.40;;;;;;5015355;28;20088;-77
2022/09/14 00:42:04;;;;;;;5.75;3.80;;;22.60;72.40;;;;;;5002195;28;20042;-77
2022/09/14 00:44:30;;;;;;;8.40;3.47;;;22.60;72.30;;;;;;4997662;28;20042;-77
2022/09/14 00:46:59;;;;;;;8.77;3.33;;;22.60;72.00;;;;;;4997638;28;20030;-77
2022/09/14 00:49:34;;;;;;;9.35;3.25;;;22.60;72.10;;;;;;4997704;28;20062;-77
2022/09/14 00:52:17;;;;;;;7.07;3.10;;;22.60;72.20;;;;;;4997920;28;20395;-77
2022/09/14 00:54:59;;;;;;;6.57;3.30;;;22.50;72.20;;;;;;4998133;28;20088;-76
2022/09/14 00:57:28;;;;;;;8.27;3.17;;;22.50;72.20;;;;;;4997092;28;20027;-77
2022/09/14 00:59:54;;;;;;;8.40;3.63;;;22.50;72.10;;;;;;4996403;28;20031;-77
2022/09/14 01:02:22;;;;;;;7.47;3.13;;;22.50;72.00;;;;;;4995919;28;20628;-77
2022/09/14 01:04:50;;;;;;;9.00;3.40;;;22.50;72.10;;;;;;4996207;28;20153;-77
2022/09/14 01:07:31;;;;;;;7.82;3.05;;;22.50;71.90;;;;;;4997313;28;20096;-77
2022/09/14 01:10:12;;;;;;;9.60;3.22;;;22.40;72.10;;;;;;5012675;28;20375;-77
2022/09/14 01:13:05;;;;;;;7.43;2.95;;;22.30;72.30;;;;;;5016728;28;20025;-76
2022/09/14 01:15:37;;;;;;;4.80;2.55;;;22.40;72.20;;;;;;5016289;28;20045;-76
2022/09/14 01:18:13;;;;;;;9.25;2.35;;;22.30;72.50;;;;;;5015928;28;20033;-76
2022/09/14 01:20:46;;;;;;;8.50;2.88;;;22.30;72.30;;;;;;5011449;28;20504;-77
2022/09/14 01:23:40;;;;;;;7.93;2.85;;;22.30;72.30;;;;;;4997236;28;20032;-77
2022/09/14 01:26:17;;;;;;;5.72;3.22;;;22.30;72.60;;;;;;5007056;28;20031;-77
2022/09/14 01:29:14;;;;;;;4.75;2.60;;;22.20;72.80;;;;;;4996978;28;20027;-77
2022/09/14 01:32:21;;;;;;;8.88;3.15;;;22.20;72.80;;;;;;4991174;28;20042;-77
2022/09/14 01:34:58;;;;;;;7.97;3.65;;;22.20;72.80;;;;;;4995105;28;20072;-77
2022/09/14 01:37:30;;;;;;;9.02;3.30;;;22.20;72.80;;;;;;4995657;28;20026;-77
2022/09/14 01:40:11;;;;;;;8.80;3.55;;;22.20;72.90;;;;;;4996707;28;20057;-77
2022/09/14 01:42:39;;;;;;;5.65;3.63;;;22.10;73.30;;;;;;4996895;28;20474;-77
2022/09/14 01:45:09;;;;;;;6.25;3.47;;;22.00;73.30;;;;;;4996622;28;20023;-77
2022/09/14 01:47:46;;;;;;;;;;;22.00;73.20;;;;;;4996127;28;20037;-77
2022/09/14 01:50:33;;;;;;;10.95;3.25;;;22.00;73.20;;;;;;4995244;28;19957;-77
2022/09/14 01:53:11;;;;;;;5.93;3.17;;;22.00;73.40;;;;;;5010723;28;20026;-77
2022/09/14 01:55:43;;;;;;;11.68;3.90;;;21.90;73.60;;;;;;4996371;28;20034;-77
2022/09/14 01:58:35;;;;;;;9.23;3.20;;;21.80;74.10;;;;;;4996537;28;20021;-76
2022/09/14 02:01:03;;;;;;;6.95;3.67;;;21.80;74.40;;;;;;4977418;28;20046;-77
2022/09/14 02:03:34;;;;;;;8.55;3.42;;;21.80;74.00;;;;;;4996616;28;20022;-77
2022/09/14 02:06:11;;;;;;;12.18;3.67;;;21.90;73.80;;;;;;4996726;28;20022;-77
2022/09/14 02:08:37;;;;;;;6.15;3.40;;;21.90;73.60;;;;;;4996314;28;20026;-77
2022/09/14 02:11:03;;;;;;;5.53;3.35;;;21.90;73.60;;;;;;4995644;28;20057;-76
2022/09/14 02:13:28;;;;;;;6.38;3.55;;;21.80;73.30;;;;;;4996308;28;20027;-76
2022/09/14 02:15:54;;;;;;;8.55;3.35;;;21.90;73.40;;;;;;4996601;28;20549;-77
2022/09/14 02:18:21;;;;;;;10.20;3.85;;;21.80;73.50;;;;;;4996464;28;20022;-77
2022/09/14 02:20:55;;;;;;;9.88;3.45;;;21.80;73.40;;;;;;5011638;28;20038;-77
2022/09/14 02:23:21;;;;;;;9.95;3.95;;;21.80;73.70;;;;;;4994866;28;20117;-77
2022/09/14 02:25:47;;;;;;;12.57;4.38;;;21.70;74.40;;;;;;4996392;28;20026;-77
2022/09/14 02:28:13;;;;;;;8.23;3.92;;;21.80;74.40;;;;;;4995445;28;20030;-77
2022/09/14 02:31:06;;;;;;;9.80;4.05;;;21.80;74.40;;;;;;4995834;28;20150;-77
2022/09/14 02:33:54;;;;;;;7.15;4.40;;;21.80;74.30;;;;;;4996060;28;20033;-76
2022/09/14 02:36:32;;;;;;;9.52;4.43;;;21.80;74.00;;;;;;4995920;28;20027;-77
2022/09/14 02:39:07;;;;;;;11.23;4.28;;;21.80;74.10;;;;;;4996380;28;20488;-77
2022/09/14 02:42:02;;;;;;;12.75;4.65;;;21.80;73.90;;;;;;4996009;28;20061;-77
2022/09/14 02:44:33;;;;;;;9.85;4.35;;;21.80;74.30;;;;;;5009818;28;20059;-77
2022/09/14 02:47:19;;;;;;;10.05;4.75;;;21.80;74.20;;;;;;4995734;28;20027;-77
2022/09/14 02:49:52;;;;;;;8.55;4.40;;;21.80;74.20;;;;;;4995805;28;20022;-77
2022/09/14 02:52:26;;;;;;;9.10;4.78;;;21.80;74.20;;;;;;5011287;28;20042;-77
2022/09/14 02:55:08;;;;;;;11.93;4.00;;;21.80;74.10;;;;;;4995910;28;20022;-77
2022/09/14 02:58:00;;;;;;;10.35;3.67;;;21.80;74.20;;;;;;5011078;28;20034;-77
2022/09/14 03:00:30;;;;;;;10.90;5.35;;;21.80;74.10;;;;;;4995059;28;20034;-77
2022/09/14 03:02:57;;;;;;;5.57;3.42;;;21.80;74.20;;;;;;4994406;28;20125;-77
2022/09/14 03:05:22;;;;;;;6.72;3.55;;;21.80;74.30;;;;;;4996020;28;20037;-77
2022/09/14 03:07:48;;;;;;;7.03;3.22;;;21.80;74.40;;;;;;4995846;28;20057;-77
2022/09/14 03:10:13;;;;;;;11.40;3.38;;;21.70;74.40;;;;;;4995674;28;20023;-77
2022/09/14 03:12:39;;;;;;;9.20;3.40;;;21.70;74.40;;;;;;4995720;28;20394;-77
2022/09/14 03:15:06;;;;;;;4.95;3.40;;;21.80;74.30;;;;;;4995596;28;20057;-77
2022/09/14 03:17:32;;;;;;;10.95;3.05;;;21.80;74.30;;;;;;5010888;28;20068;-77
2022/09/14 03:19:57;;;;;;;4.70;2.75;;;21.80;74.40;;;;;;4993786;28;20486;-77
2022/09/14 03:22:23;;;;;;;12.40;3.90;;;21.80;74.10;;;;;;4995595;28;20022;-77
2022/09/14 03:24:49;;;;;;;10.57;2.95;;;21.80;74.10;;;;;;4995359;28;20038;-77
2022/09/14 03:27:15;;;;;;;4.93;3.30;;;21.80;74.20;;;;;;4995347;28;20049;-77
2022/09/14 03:29:40;;;;;;;6.60;3.47;;;21.70;74.30;;;;;;5014911;28;20045;-77
2022/09/14 03:32:06;;;;;;;9.82;3.50;;;21.80;74.30;;;;;;4997622;28;20136;-77
2022/09/14 03:34:31;;;;;;;11.65;3.45;;;21.80;74.60;;;;;;5014986;28;20022;-77
2022/09/14 03:36:57;;;;;;;12.10;3.40;;;21.70;74.70;;;;;;5006902;28;20038;-77
2022/09/14 03:39:23;;;;;;;8.02;2.97;;;21.80;74.60;;;;;;4995323;28;20049;-77
2022/09/14 03:41:49;;;;;;;7.78;3.45;;;21.80;74.50;;;;;;4996793;28;20053;-77
2022/09/14 03:44:14;;;;;;;8.60;3.17;;;21.70;74.60;;;;;;4998810;28;20046;-77
2022/09/14 03:46:40;;;;;;;5.70;2.63;;;21.80;74.60;;;;;;4998942;28;20133;-77
2022/09/14 03:49:05;;;;;;;9.88;2.85;;;21.80;74.60;;;;;;4999399;28;20033;-77
2022/09/14 03:51:35;;;;;;;9.88;3.00;;;21.70;74.80;;;;;;4998874;28;20034;-77
2022/09/14 03:54:01;;;;;;;9.60;2.80;;;21.80;74.60;;;;;;4998980;28;20097;-77
2022/09/14 03:56:26;;;;;;;4.85;2.40;;;21.80;74.50;;;;;;4998477;28;20283;-77
2022/09/14 03:58:52;;;;;;;9.10;3.00;;;21.80;74.40;;;;;;4998775;28;20113;-77
2022/09/14 04:01:20;;;;;;;8.73;2.72;;;21.80;74.70;;;;;;4999018;28;20026;-77
2022/09/14 04:03:46;;;;;;;8.43;2.78;;;21.70;74.70;;;;;;4998688;28;20034;-77
2022/09/14 04:06:13;;;;;;;6.57;2.45;;;21.80;74.80;;;;;;5014290;28;20026;-77
2022/09/14 04:08:41;;;;;;;5.32;2.35;;;21.80;74.80;;;;;;4998688;28;20030;-77
2022/09/14 04:11:12;;;;;;;10.40;2.65;;;21.70;75.10;;;;;;4998229;28;20034;-77
2022/09/14 04:13:38;;;;;;;8.38;2.28;;;21.70;75.00;;;;;;4996085;28;20026;-77
2022/09/14 04:16:04;;;;;;;5.88;2.72;;;21.70;74.90;;;;;;4998455;28;20450;-77
2022/09/14 04:18:30;;;;;;;6.35;2.75;;;21.70;75.00;;;;;;4998872;28;20112;-77
2022/09/14 04:21:01;;;;;;;8.95;2.83;;;21.70;74.90;;;;;;4998221;28;20026;-77
2022/09/14 04:23:27;;;;;;;6.07;2.42;;;21.70;74.70;;;;;;4998208;28;20030;-77
2022/09/14 04:25:53;;;;;;;7.30;2.10;;;21.70;74.60;;;;;;4998685;28;20032;-77
2022/09/14 04:28:20;;;;;;;9.15;2.63;;;21.70;74.60;;;;;;4997137;28;20050;-77
2022/09/14 04:30:57;;;;;;;6.93;2.10;;;21.70;74.60;;;;;;4998456;28;20026;-80
2022/09/14 04:33:23;;;;;;;5.95;1.95;;;21.70;74.50;;;;;;4998221;28;20477;-87
2022/09/14 04:36:02;;;;;;;8.30;2.53;;;21.70;74.70;;;;;;5000052;28;20022;-84
2022/09/14 04:38:29;;;;;;;11.48;2.50;;;21.80;74.60;;;;;;5013451;28;20061;-86
2022/09/14 04:40:56;;;;;;;6.47;2.17;;;21.70;74.70;;;;;;5012990;28;20026;-86
2022/09/14 04:43:22;;;;;;;9.40;2.28;;;21.70;74.60;;;;;;5014013;28;20676;-85
2022/09/14 04:45:48;;;;;;;8.43;2.33;;;21.70;74.70;;;;;;5013004;28;20060;-83
2022/09/14 04:48:32;;;;;;;8.18;2.17;;;21.70;74.70;;;;;;5012171;28;20045;-83
2022/09/14 04:51:03;;;;;;;6.93;2.28;;;21.70;74.60;;;;;;4998591;28;20018;-84
2022/09/14 04:53:29;;;;;;;6.53;2.08;;;21.70;74.70;;;;;;4997638;28;20034;-81
2022/09/14 04:56:03;;;;;;;10.00;2.78;;;21.70;74.70;;;;;;4998384;28;20129;-84
2022/09/14 04:58:29;;;;;;;7.43;2.70;;;21.70;74.70;;;;;;5017180;28;20038;-82
2022/09/14 05:01:01;;;;;;;7.15;2.35;;;21.70;74.60;;;;;;5017100;28;20030;-82
2022/09/14 05:03:29;;;;;;;8.48;2.50;;;21.70;74.60;;;;;;5010855;28;20637;-86
2022/09/14 05:06:05;;;;;;;8.30;2.25;;;21.70;74.60;;;;;;5017027;28;20034;-78
2022/09/14 05:08:32;;;;;;;5.82;2.25;;;21.70;74.50;;;;;;4997649;28;20034;-79
2022/09/14 05:11:19;;;;;;;4.93;1.60;;;21.70;74.70;;;;;;5013344;28;20441;-79
2022/09/14 05:13:45;;;;;;;6.43;2.17;;;21.70;74.50;;;;;;5012707;28;20882;-80
2022/09/14 05:16:15;;;;;;;5.35;2.03;;;21.60;74.70;;;;;;4994124;28;20313;-81
2022/09/14 05:18:42;;;;;;;6.20;2.00;;;21.70;74.80;;;;;;5015126;28;20091;-81
2022/09/14 05:21:11;;;;;;;6.53;2.28;;;21.60;74.70;;;;;;5005576;28;20455;-80
2022/09/14 05:23:37;;;;;;;5.28;1.55;;;21.70;74.70;;;;;;5009891;28;20397;-77
2022/09/14 05:26:04;;;;;;;3.58;2.13;;;21.70;74.90;;;;;;5014693;28;20022;-78
2022/09/14 05:28:30;;;;;;;5.32;2.00;;;21.70;74.90;;;;;;4998146;28;20508;-78
2022/09/14 05:30:56;;;;;;;7.05;2.20;;;21.60;74.80;;;;;;5013984;28;20022;-78
2022/09/14 05:33:22;;;;;;;4.13;1.88;;;21.60;74.90;;;;;;5006041;28;20026;-78
2022/09/14 05:35:49;;;;;;;4.85;1.90;;;21.60;74.90;;;;;;5030340;28;20026;-78
2022/09/14 05:38:15;;;;;;;8.38;1.88;;;21.60;75.00;;;;;;5016715;28;20040;-78
2022/09/14 05:40:40;;;;;;;4.90;1.80;;;21.70;75.00;;;;;;5003681;28;20454;-78
2022/09/14 05:43:06;;;;;;;5.15;2.33;;;21.60;75.00;;;;;;4995049;28;20050;-85
2022/09/14 05:45:35;;;;;;;3.70;2.28;;;21.60;74.90;;;;;;4994109;28;20026;-78
2022/09/14 05:48:03;;;;;;;4.72;2.45;;;21.60;75.00;;;;;;5003077;28;20083;-79
2022/09/14 05:50:30;;;;;;;7.55;2.13;;;21.60;75.00;;;;;;4998714;28;20711;-79
2022/09/14 05:52:55;;;;;;;7.18;2.28;;;21.60;75.10;;;;;;5013857;28;20026;-79
2022/09/14 05:55:22;;;;;;;5.95;2.15;;;21.60;74.90;;;;;;4996788;28;20053;-86
2022/09/14 05:57:49;;;;;;;7.30;2.17;;;21.60;74.90;;;;;;5014314;28;20022;-80
2022/09/14 06:00:15;;;;;;;6.03;2.20;;;21.60;74.90;;;;;;5016448;28;20026;-69
2022/09/14 06:02:52;;;;;;;6.03;2.45;;;21.60;74.80;;;;;;4997710;28;20029;-68
2022/09/14 06:05:18;;;;;;;9.80;3.03;;;21.70;74.70;;;;;;4996313;28;20092;-69
2022/09/14 06:07:48;;;;;;;7.18;1.85;;;21.70;74.60;;;;;;4994587;28;20026;-70
2022/09/14 06:10:14;;;;;;;5.03;1.83;;;21.60;74.70;;;;;;4996832;28;20030;-70
2022/09/14 06:12:40;;;;;;;5.32;2.00;;;21.60;75.10;;;;;;5015417;28;20060;-67
2022/09/14 06:15:06;;;;;;;8.68;1.90;;;21.70;76.60;;;;;;5014164;28;20096;-66
2022/09/14 06:17:32;;;;;;;6.93;1.67;;;21.70;75.70;;;;;;5009620;28;20188;-66
2022/09/14 06:19:58;;;;;;;7.05;1.85;;;21.70;75.80;;;;;;4996134;28;20062;-69
2022/09/14 06:22:23;;;;;;;9.23;3.20;;;21.80;75.40;;;;;;4996179;28;20486;-66
2022/09/14 06:24:49;;;;;;;7.70;1.90;;;21.80;75.70;;;;;;4996199;28;20647;-68
2022/09/14 06:27:15;;;;;;;5.00;1.83;;;21.90;75.50;;;;;;4996216;28;20490;-66
2022/09/14 06:29:41;;;;;;;5.30;1.65;;;21.90;75.90;;;;;;4996211;28;20121;-66
2022/09/14 06:32:07;;;;;;;4.85;1.77;;;22.00;75.20;;;;;;4996611;28;20026;-70
2022/09/14 06:34:33;;;;;;;6.07;1.48;;;22.00;74.40;;;;;;5014491;28;20032;-68
2022/09/14 06:36:58;;;;;;;4.53;2.08;;;22.00;73.90;;;;;;5014779;28;20041;-67
2022/09/14 06:39:24;;;;;;;6.18;1.70;;;22.10;73.90;;;;;;5014598;28;20033;-67
2022/09/14 06:41:50;;;;;;;6.15;2.00;;;22.20;74.20;;;;;;5005986;28;20113;-67
2022/09/14 06:44:16;;;;;;;6.20;1.60;;;22.20;73.20;;;;;;4994598;28;20058;-66
2022/09/14 06:46:43;;;;;;;6.88;1.40;;;22.30;72.80;;;;;;4995408;28;20030;-67
2022/09/14 06:49:12;;;;;;;7.88;1.50;;;22.30;72.90;;;;;;4994833;28;20393;-66
2022/09/14 06:51:40;;;;;;;2.90;1.17;;;22.30;72.60;;;;;;4994949;28;20061;-67
2022/09/14 06:54:07;;;;;;;5.30;1.33;;;22.30;72.30;;;;;;4995421;28;20022;-67
2022/09/14 06:56:37;;;;;;;5.30;1.58;;;22.30;72.30;;;;;;4994960;28;20034;-67
2022/09/14 06:59:05;;;;;;;6.35;1.60;;;22.50;72.00;;;;;;5007741;28;20460;-66
2022/09/14 07:01:31;;;;;;;7.18;2.25;;;22.50;71.90;;;;;;5014654;28;20038;-66
2022/09/14 07:03:59;;;;;;;4.45;1.45;;;22.40;71.60;;;;;;5014435;28;20080;-67
2022/09/14 07:06:26;;;;;;;3.78;1.75;;;22.40;71.40;;;;;;5006932;28;20796;-67
2022/09/14 07:08:53;;;;;;;3.70;1.20;;;22.50;71.30;;;;;;4994772;28;20058;-66
2022/09/14 07:11:21;;;;;;;5.40;1.55;;;22.50;71.20;;;;;;5004646;28;20026;-67
2022/09/14 07:13:47;;;;;;;3.33;1.23;;;22.50;70.90;;;;;;5014352;28;20408;-67
2022/09/14 07:16:13;;;;;;;7.80;1.38;;;22.60;71.00;;;;;;5007466;28;20109;-67
2022/09/14 07:18:40;;;;;;;5.10;1.50;;;22.60;71.10;;;;;;4998776;28;20023;-66
2022/09/14 07:21:11;;;;;;;5.25;1.27;;;22.50;71.00;;;;;;4998603;28;20018;-67
2022/09/14 07:23:40;;;;;;;7.00;2.00;;;22.60;71.00;;;;;;4998612;28;20109;-67
2022/09/14 07:26:13;;;;;;;4.13;1.10;;;22.60;70.80;;;;;;5018087;28;20037;-67
2022/09/14 07:28:40;;;;;;;7.60;1.85;;;22.60;70.80;;;;;;5018054;28;20080;-67
2022/09/14 07:31:16;;;;;;;5.88;1.48;;;22.60;70.70;;;;;;5018133;28;20029;-67
2022/09/14 07:33:41;;;;;;;7.63;1.67;;;22.50;71.00;;;;;;5002554;28;20041;-67
2022/09/14 07:36:09;;;;;;;6.38;1.30;;;22.60;70.90;;;;;;5017822;28;20026;-66
2022/09/14 07:38:35;;;;;;;9.85;1.30;;;22.90;70.40;;;;;;5000911;28;20502;-67
2022/09/14 07:41:05;;;;;;;4.95;1.35;;;23.20;69.60;;;;;;4998237;28;20062;-84
2022/09/14 07:43:31;;;;;;;6.53;1.63;;;23.20;69.20;;;;;;4998964;28;20042;-88
2022/09/14 07:46:22;;;;;;;6.10;1.38;;;23.30;69.40;;;;;;4999234;28;20037;-87
2022/09/14 07:48:53;;;;;;;4.20;1.50;;;23.30;69.40;;;;;;4999942;28;20042;-88
2022/09/14 07:51:19;;;;;;;4.50;1.40;;;23.30;69.30;;;;;;4999965;28;20049;-87
2022/09/14 07:53:45;;;;;;;5.00;1.50;;;23.30;69.40;;;;;;4999446;28;20096;-89
2022/09/14 07:56:12;;;;;;;3.70;0.93;;;23.30;69.40;;;;;;5014844;28;20149;-89
2022/09/14 07:58:39;;;;;;;6.38;1.30;;;23.30;69.30;;;;;;5001674;28;20052;-89
2022/09/14 08:01:12;;;;;;;3.33;1.25;;;23.40;69.30;;;;;;4997890;28;20053;-89
2022/09/14 08:03:40;;;;;;;5.85;1.10;;;23.30;69.50;;;;;;4998383;28;20034;-89
2022/09/14 08:06:12;;;;;;;6.15;1.20;;;23.40;68.90;;;;;;5006706;28;20018;-89
2022/09/14 08:08:40;;;;;;;6.00;1.40;;;23.50;68.50;;;;;;5019185;28;20038;-89
2022/09/14 08:11:12;;;;;;;5.85;1.27;;;23.80;68.10;;;;;;5034026;28;20545;-84
2022/09/14 08:13:40;;;;;;;5.22;1.20;;;24.00;67.10;;;;;;4998439;28;20433;-90
2022/09/14 08:16:06;;;;;;;4.78;1.30;;;24.00;67.40;;;;;;4997959;28;20110;-83
2022/09/14 08:18:34;;;;;;;4.90;1.00;;;23.90;67.70;;;;;;4997653;28;20026;-84
2022/09/14 08:21:17;;;;;;;3.10;0.90;;;23.90;68.10;;;;;;4996859;28;20069;-83
2022/09/14 08:23:44;;;;;;;5.65;1.48;;;23.90;67.70;;;;;;4998657;28;20042;-84
2022/09/14 08:26:15;;;;;;;4.20;1.20;;;23.80;68.30;;;;;;5013773;28;20113;-84
2022/09/14 08:28:42;;;;;;;4.78;1.25;;;23.90;68.30;;;;;;4997915;28;20540;-83
2022/09/14 08:31:11;;;;;;;6.82;1.75;;;23.80;68.30;;;;;;4998400;28;20397;-84
2022/09/14 08:33:39;;;;;;;3.00;1.40;;;23.90;68.10;;;;;;4998995;28;20029;-83
2022/09/14 08:36:07;;;;;;;5.78;1.00;;;23.90;67.90;;;;;;5018086;28;20125;-84
2022/09/14 08:38:33;;;;;;;2.85;1.00;;;23.90;68.30;;;;;;5000557;28;20489;-84
2022/09/14 08:41:09;;;;;;;4.18;1.17;;;23.90;68.40;;;;;;5012652;28;20088;-83
2022/09/14 08:43:38;;;;;;;4.97;1.23;;;23.90;68.90;;;;;;4998144;28;20050;-84
2022/09/14 08:46:10;;;;;;;4.10;0.98;;;24.00;68.70;;;;;;5012923;28;20490;-82
2022/09/14 08:48:40;;;;;;;3.80;1.02;;;24.10;68.80;;;;;;4998027;28;20031;-82
2022/09/14 08:51:06;;;;;;;5.80;1.35;;;24.20;68.10;;;;;;4998518;28;20027;-83
2022/09/14 08:53:37;;;;;;;3.78;1.05;;;24.30;68.50;;;;;;5013694;28;20053;-83
2022/09/14 08:56:11;;;;;;;4.40;1.35;;;24.60;67.80;;;;;;4998000;28;20097;-83
2022/09/14 08:59:07;;;;;;;4.57;1.20;;;24.90;65.90;;;;;;5006937;28;20036;-84
2022/09/14 09:02:01;;;;;;;3.53;1.23;;;25.30;65.00;;;;;;5016948;28;20026;-83
2022/09/14 09:04:38;;;;;;;6.72;1.48;;;25.30;64.40;;;;;;4997886;28;20030;-83
2022/09/14 09:07:24;;;;;;;2.65;1.02;;;25.00;64.40;;;;;;4997728;28;20038;-83
2022/09/14 09:09:52;;;;;;;5.90;1.38;;;24.90;65.50;;;;;;4997729;28;20042;-83
2022/09/14 09:12:34;;;;;;;3.85;1.15;;;24.90;65.60;;;;;;5015579;28;20141;-83
2022/09/14 09:15:05;;;;;;;4.68;1.00;;;24.90;65.80;;;;;;5017230;28;20022;-83
2022/09/14 09:17:37;;;;;;;4.50;0.88;;;24.90;65.70;;;;;;5004741;28;20441;-84
2022/09/14 09:20:29;;;;;;;7.00;1.55;;;24.90;65.70;;;;;;4997555;28;20120;-84
2022/09/14 09:23:11;;;;;;;4.55;1.30;;;25.00;65.70;;;;;;4997296;28;20038;-84
2022/09/14 09:26:04;;;;;;;5.72;1.20;;;25.00;65.50;;;;;;4997727;28;20030;-83
2022/09/14 09:28:30;;;;;;;5.97;0.90;;;25.10;65.40;;;;;;4975675;28;20101;-84
2022/09/14 09:31:05;;;;;;;8.02;1.73;;;25.10;65.00;;;;;;4996054;28;20038;-86
2022/09/14 09:33:32;;;;;;;4.18;0.98;;;25.10;65.20;;;;;;4995872;28;20031;-83
2022/09/14 09:35:58;;;;;;;3.67;0.88;;;25.10;65.30;;;;;;4999087;28;20026;-83
2022/09/14 09:38:27;;;;;;;6.25;1.10;;;25.10;66.00;;;;;;4999482;28;20084;-85
2022/09/14 09:41:31;;;;;;;5.90;1.10;;;25.20;65.70;;;;;;5004289;28;20088;-83
2022/09/14 09:43:59;;;;;;;5.72;0.95;;;25.20;65.50;;;;;;4955809;29;20086;-83
2022/09/14 09:46:31;;;;;;;4.75;1.38;;;25.30;65.20;;;;;;4975545;28;20541;-84
2022/09/14 09:49:02;;;;;;;4.13;1.00;;;25.30;65.20;;;;;;5006632;28;20093;-84
2022/09/14 09:51:30;;;;;;;4.68;1.05;;;25.30;65.10;;;;;;5031333;28;20033;-83
2022/09/14 09:54:11;;;;;;;2.67;1.15;;;25.40;65.10;;;;;;5015428;28;20038;-84
2022/09/14 09:56:57;;;;;;;3.47;1.02;;;25.50;65.30;;;;;;4996487;28;20018;-83
2022/09/14 09:59:36;;;;;;;3.22;1.05;;;25.50;64.60;;;;;;5020951;28;20548;-81
2022/09/14 10:02:22;;;;;;;5.18;1.10;;;25.60;64.10;;;;;;5011546;28;20018;-82
2022/09/14 10:05:07;;;;;;;3.33;1.00;;;25.60;64.10;;;;;;4992800;28;20034;-81
2022/09/14 10:07:41;;;;;;;4.50;1.17;;;25.60;63.90;;;;;;5009691;28;20018;-81
2022/09/14 10:10:07;;;;;;;7.60;1.60;;;25.80;64.00;;;;;;5013319;28;20036;-82
2022/09/14 10:12:35;;;;;;;3.30;0.77;;;25.90;63.60;;;;;;4996041;28;20121;-81
2022/09/14 10:15:29;;;;;;;4.63;1.40;;;26.00;63.60;;;;;;5013583;28;20116;-81
2022/09/14 10:17:54;;;;;;;4.22;1.00;;;26.00;62.70;;;;;;4997924;28;20029;-79
2022/09/14 10:20:23;;;;;;;5.57;0.90;;;26.00;62.50;;;;;;5014045;28;20026;-83
2022/09/14 10:22:49;;;;;;;3.25;0.77;;;26.10;62.40;;;;;;5016660;28;20478;-86
2022/09/14 10:25:17;;;;;;;2.35;0.90;;;26.00;62.30;;;;;;4998590;28;20028;-89
2022/09/14 10:27:55;;;;;;;3.88;0.98;;;26.00;62.60;;;;;;5013888;28;20060;-83
2022/09/14 10:30:33;;;;;;;5.15;1.25;;;26.20;62.50;;;;;;5010959;28;20022;-84
2022/09/14 10:33:02;;;;;;;5.72;1.10;;;26.20;62.30;;;;;;5015164;28;20036;-82
2022/09/14 10:35:39;;;;;;;2.47;0.88;;;26.30;61.60;;;;;;5014799;28;20660;-83
2022/09/14 10:38:24;;;;;;;5.20;1.10;;;26.30;61.50;;;;;;5014468;28;20022;-83
2022/09/14 10:41:10;;;;;;;6.30;1.10;;;26.40;60.10;;;;;;4999348;28;20022;-83
2022/09/14 10:43:44;;;;;;;6.20;1.20;;;26.50;60.80;;;;;;5011674;28;20049;-83
2022/09/14 10:46:16;;;;;;;7.03;2.78;;;26.50;60.90;;;;;;5006681;28;20400;-84
2022/09/14 10:49:24;;;;;;;3.75;0.77;;;26.60;60.60;;;;;;5024436;28;20037;-82
2022/09/14 10:52:35;;;;;;;4.18;1.17;;;26.60;60.20;;;;;;5014064;28;20049;-84
2022/09/14 10:55:42;;;;;;;4.07;0.90;;;26.70;60.70;;;;;;4980656;28;20042;-83
2022/09/14 10:58:36;;;;;;;6.55;1.20;;;26.60;60.60;;;;;;5010650;28;20025;-83
2022/09/14 11:01:05;;;;;;;4.60;1.10;;;26.70;60.10;;;;;;5021407;28;20034;-82
2022/09/14 11:03:42;;;;;;;3.72;1.13;;;26.80;60.10;;;;;;5021705;28;20692;-85
2022/09/14 11:06:35;;;;;;;2.50;1.15;;;26.80;59.30;;;;;;5021355;28;20025;-83
2022/09/14 11:09:18;;;;;;;4.63;1.17;;;26.80;59.50;;;;;;5016361;28;20157;-83
2022/09/14 11:12:03;;;;;;;4.47;1.17;;;26.90;58.80;;;;;;5021572;28;20100;-83
2022/09/14 11:14:54;;;;;;;4.28;1.05;;;26.80;59.60;;;;;;5021445;28;20017;-83
2022/09/14 11:17:44;;;;;;;3.33;1.05;;;26.90;58.90;;;;;;5020475;28;20029;-84
2022/09/14 11:20:21;;;;;;;3.72;0.80;;;26.90;58.90;;;;;;5010188;28;20057;-82
2022/09/14 11:23:33;;;;;;;4.68;1.20;;;27.00;59.20;;;;;;5021111;28;20137;-82
2022/09/14 11:26:15;;;;;;;6.38;1.23;;;27.10;58.60;;;;;;5016026;28;20030;-85
2022/09/14 11:28:52;;;;;;;5.15;1.15;;;27.20;58.80;;;;;;5021400;28;20481;-84
2022/09/14 11:31:27;;;;;;;5.10;1.00;;;27.20;57.60;;;;;;5020484;28;20147;-83
2022/09/14 11:34:25;;;;;;;5.03;1.27;;;27.30;58.80;;;;;;5016143;28;20450;-83
2022/09/14 11:36:58;;;;;;;3.70;1.17;;;27.30;57.40;;;;;;4984758;28;20034;-83
2022/09/14 11:39:32;;;;;;;2.65;0.90;;;27.30;58.10;;;;;;5021453;28;20111;-82
2022/09/14 11:42:10;;;;;;;4.10;1.30;;;27.40;57.80;;;;;;5020931;28;20029;-82
2022/09/14 11:44:38;;;;;;;3.72;0.93;;;27.50;57.20;;;;;;5036588;28;20058;-83
2022/09/14 11:47:13;;;;;;;2.90;0.70;;;27.40;56.90;;;;;;5018460;28;20496;-84
2022/09/14 11:50:09;;;;;;;2.40;0.77;;;27.50;56.40;;;;;;5018768;28;20034;-83
2022/09/14 11:52:35;;;;;;;4.47;0.82;;;27.60;58.30;;;;;;5016895;28;20084;-83
2022/09/14 11:55:07;;;;;;;2.03;0.85;;;27.80;56.80;;;;;;5019161;28;20631;-83
2022/09/14 11:57:33;;;;;;;3.30;0.98;;;27.70;57.30;;;;;;5019177;28;20516;-83
2022/09/14 12:00:07;;;;;;;2.20;0.82;;;27.80;57.20;;;;;;5019129;28;20033;-82
2022/09/14 12:02:35;;;;;;;4.07;1.25;;;27.70;57.00;;;;;;4997771;28;20061;-85
2022/09/14 12:05:04;;;;;;;3.33;0.80;;;27.70;56.70;;;;;;5016074;28;20030;-85
2022/09/14 12:07:41;;;;;;;2.93;0.83;;;27.70;56.90;;;;;;5015976;28;20030;-82
2022/09/14 12:10:13;;;;;;;3.92;0.88;;;27.80;56.00;;;;;;5000842;28;20057;-84
2022/09/14 12:12:44;;;;;;;4.47;0.85;;;27.80;56.70;;;;;;5013201;28;20038;-82
2022/09/14 12:15:21;;;;;;;6.32;1.90;;;27.80;56.90;;;;;;5015859;28;20100;-86
2022/09/14 12:17:49;;;;;;;3.35;1.10;;;27.80;56.60;;;;;;5009027;28;20113;-85
2022/09/14 12:20:27;;;;;;;3.63;0.90;;;27.60;57.00;;;;;;5028121;28;20496;-84
2022/09/14 12:23:06;;;;;;;2.60;0.70;;;27.60;56.90;;;;;;4998566;28;20033;-85
2022/09/14 12:25:33;;;;;;;5.18;1.27;;;27.70;57.40;;;;;;5014431;28;20050;-87
2022/09/14 12:27:59;;;;;;;5.22;1.00;;;27.90;57.20;;;;;;5015618;28;20046;-84
2022/09/14 12:30:40;;;;;;;3.60;1.13;;;28.10;56.90;;;;;;5006922;28;20025;-83
2022/09/14 12:33:34;;;;;;;3.83;0.82;;;28.00;55.60;;;;;;5017062;28;20072;-86
2022/09/14 12:36:29;;;;;;;2.17;0.95;;;28.10;56.20;;;;;;5017337;28;20068;-84
2022/09/14 12:38:58;;;;;;;2.85;0.82;;;28.30;55.00;;;;;;4992937;28;20038;-81
2022/09/14 12:41:24;;;;;;;5.85;1.10;;;28.40;54.70;;;;;;5015362;28;20084;-82
2022/09/14 12:43:49;;;;;;;4.45;1.75;;;28.40;54.40;;;;;;5010879;28;20058;-82
2022/09/14 12:46:21;;;;;;;4.68;0.77;;;28.40;55.30;;;;;;5006834;28;20037;-81
2022/09/14 12:48:51;;;;;;;3.83;0.98;;;28.30;54.80;;;;;;4997726;28;20057;-81
2022/09/14 12:51:33;;;;;;;3.92;1.15;;;28.20;54.20;;;;;;5012821;28;20090;-81
2022/09/14 12:54:08;;;;;;;2.17;0.95;;;28.00;55.20;;;;;;4997156;28;20025;-81
2022/09/14 12:56:45;;;;;;;4.38;1.23;;;28.00;56.20;;;;;;5004520;28;20030;-80
2022/09/14 12:59:21;;;;;;;2.97;1.00;;;28.00;55.80;;;;;;4999992;28;20505;-80
2022/09/14 13:02:06;;;;;;;5.70;1.00;;;28.00;55.60;;;;;;5014160;28;20025;-82
2022/09/14 13:04:35;;;;;;;2.45;1.02;;;28.00;56.00;;;;;;5016002;28;20037;-81
2022/09/14 13:07:04;;;;;;;3.63;1.00;;;28.10;55.70;;;;;;4998187;28;20034;-81
2022/09/14 13:09:31;;;;;;;4.78;1.00;;;28.10;55.50;;;;;;5015723;28;20041;-81
2022/09/14 13:12:02;;;;;;;4.07;1.50;;;28.20;55.80;;;;;;5026890;28;20036;-80